San Diego International Airport
KSAN : now visible

Airfield :











YOU CAN JOIN US ON...

 
LOGIN :

Register | Disclaimer

   EN    FR    IT 

 









Legend :    VFR   Marginal VFR   IFR   Intensive IFR   Very Intensive IFR
Visi :
Ceiling :
>= 8 km
>= 3000ft
5 to 8 km
1000 to 3000 ft
1500m to 5 km
500 to 1000 ft
800 to 1500m
200 to 500 ft
< 800m
< 200 ft
Symbols :   Thunderstorms  Fog  Heavy snow  Heavy precipitations  Wind > 20 kt






- Airport Elevation : 17 ft
- IATA code : SAN


KSAN - San Diego International

CURRENT METAR :
  • 181442Z 28007KT 10SM OVC016 15/12 A3003 RMK AO2 T01500117 $

EXPIRED METARs :
  • 181351Z 27009KT 10SM OVC012 15/12 A3000 RMK AO2 SLP159 T01500117 $
  • 181251Z 26005KT 9SM OVC011 16/12 A2997 RMK AO2 SLP150 T01560122 $
  • 181151Z 08003KT 9SM OVC011 16/12 A2997 RMK AO2 SLP149 T01560122 10156 20144 56008 $
  • 181051Z 00000KT 10SM BKN010 BKN250 16/12 A2998 RMK AO2 SLP152 T01560122 $
  • 181003Z 00000KT 10SM BKN010 BKN250 15/13 A2998 RMK AO2 T01500128 $
  • 180951Z 00000KT 10SM BKN009 BKN250 15/12 A2999 RMK AO2 SLP154 T01500122 $

TAF KSAN
Valid from the 18 at 12:00 until the 19 at 18:00 UTC


181128Z 1812/1918 VRB03KT P6SM BKN010
FM181700 VRB04KT P6SM SCT012 BKN200
FM181900 23009KT P6SM SCT200
FM190200 VRB04KT P6SM SCT015
FM190500 VRB03KT P6SM OVC015
KZLA FIR / North America



MET'MAP, your aeronautical weather chart ! - Copyright ORBIFLY December 2007 - Disclaimer

ORBIFLY MET'MAP TEAM :

Programming & Development : Alexandra Zaïnal
Original concept : Baudouin d'Aumeries
Technical & hardware support : Manuel Goepfert
Assistance : Marc-Olivier Méhu




SOURCES & CREDITS :

   NOAA       Earth
Advisory